createdAt,value
2023-08-31T00:00:33.838Z,2.299
2023-08-31T00:01:33.941Z,2
2023-08-31T00:02:32.487Z,1.799
2023-08-31T00:03:32.076Z,2.099
2023-08-31T00:04:33.239Z,1.899
2023-08-31T00:05:32.718Z,2
2023-08-31T00:06:32.589Z,1.899
2023-08-31T00:07:32.620Z,2.200
2023-08-31T00:08:32.720Z,2
2023-08-31T00:09:32.834Z,1.700
2023-08-31T00:10:35.212Z,2
2023-08-31T00:11:32.706Z,1.700
2023-08-31T00:12:32.987Z,2
2023-08-31T00:14:32.785Z,1.899
2023-08-31T00:15:32.133Z,1.799
2023-08-31T00:16:32.478Z,1.700
2023-08-31T00:17:32.434Z,1.799
2023-08-31T00:18:32.834Z,1.899
2023-08-31T00:19:31.813Z,2
2023-08-31T00:20:33.489Z,1.899
2023-08-31T00:22:32.326Z,1.799
2023-08-31T00:23:32.245Z,2.099
2023-08-31T00:24:31.987Z,1.799
2023-08-31T00:25:32.139Z,2.099
2023-08-31T00:26:32.161Z,2
2023-08-31T00:27:32.093Z,1.799
2023-08-31T00:28:32.475Z,2.099
2023-08-31T00:29:32.296Z,1.899
2023-08-31T00:30:32.735Z,1.700
2023-08-31T00:31:32.816Z,2.099
2023-08-31T00:32:31.950Z,2
2023-08-31T00:34:32.189Z,2.099
2023-08-31T00:35:32.768Z,2
2023-08-31T00:36:32.678Z,2.200
2023-08-31T00:37:32.755Z,2.099
2023-08-31T00:38:32.618Z,2.200
2023-08-31T00:39:32.362Z,1.899
2023-08-31T00:40:33.849Z,2.200
2023-08-31T00:42:32.908Z,2.299
2023-08-31T00:43:32.110Z,2.099
2023-08-31T00:44:32.199Z,1.899
2023-08-31T00:45:33.206Z,2
2023-08-31T00:46:32.645Z,2.200
2023-08-31T00:47:32.704Z,2.299
2023-08-31T00:48:32.822Z,2
2023-08-31T00:49:31.909Z,1.799
2023-08-31T00:50:34.103Z,1.899
2023-08-31T00:51:32.829Z,2.099
2023-08-31T00:52:32.592Z,2.299
2023-08-31T00:53:32.706Z,2.200
2023-08-31T00:54:32.996Z,2.099
2023-08-31T00:56:33.282Z,2.299
2023-08-31T00:57:32.892Z,1.799
2023-08-31T00:58:32.653Z,2.299
2023-08-31T00:59:32.989Z,2.099
2023-08-31T01:01:32.809Z,1.899
2023-08-31T01:02:40.730Z,2.200
2023-08-31T01:03:39.416Z,2
2023-08-31T01:04:31.621Z,2.200
2023-08-31T01:05:33.018Z,2
2023-08-31T01:07:32.775Z,2.099
2023-08-31T01:09:32.685Z,2
2023-08-31T01:10:34.158Z,1.899
2023-08-31T01:11:32.974Z,2.099
2023-08-31T01:12:32.442Z,1.799
2023-08-31T01:13:32.380Z,2.099
2023-08-31T01:14:32.800Z,2
2023-08-31T01:16:32.195Z,1.899
2023-08-31T01:17:32.512Z,2.099
2023-08-31T01:18:32.798Z,2.200
2023-08-31T01:20:33.425Z,1.799
2023-08-31T01:21:32.590Z,1.899
2023-08-31T01:22:32.783Z,2
2023-08-31T01:23:32.102Z,1.799
2023-08-31T01:24:31.968Z,2.099
2023-08-31T01:25:31.881Z,1.799
2023-08-31T01:26:32.178Z,1.899
2023-08-31T01:27:32.325Z,1.799
2023-08-31T01:29:32.602Z,1.600
2023-08-31T01:30:33.784Z,1.700
2023-08-31T01:31:32.458Z,1.799
2023-08-31T01:32:32.300Z,1.600
2023-08-31T01:33:32.612Z,1.899
2023-08-31T01:34:32.549Z,1.799
2023-08-31T01:35:32.771Z,1.899
2023-08-31T01:36:32.537Z,1.799
2023-08-31T01:37:32.399Z,1.600
2023-08-31T01:38:32.233Z,1.5
2023-08-31T01:39:31.594Z,1.899
2023-08-31T01:40:33.822Z,1.700
2023-08-31T01:41:32.664Z,1.600
2023-08-31T01:43:32.401Z,1.700
2023-08-31T01:44:32.487Z,1.799
2023-08-31T01:45:32.631Z,1.700
2023-08-31T01:47:32.762Z,1.799
2023-08-31T01:48:32.566Z,1.899
2023-08-31T01:50:33.215Z,1.700
2023-08-31T01:51:31.838Z,1.799
2023-08-31T01:52:31.846Z,1.5
2023-08-31T01:53:31.764Z,1.700
2023-08-31T01:54:31.850Z,1.600
2023-08-31T01:55:32.866Z,1.899
2023-08-31T01:56:32.942Z,1.700
2023-08-31T01:57:32.597Z,1.899
2023-08-31T01:58:32.751Z,1.700
2023-08-31T01:59:31.233Z,1.899
2023-08-31T02:00:33.492Z,2
2023-08-31T02:01:32.331Z,1.899
2023-08-31T02:02:32.490Z,2.099
2023-08-31T02:04:32.352Z,2
2023-08-31T02:05:32.868Z,1.899
2023-08-31T02:07:32.822Z,1.799
2023-08-31T02:08:32.822Z,2.099
2023-08-31T02:09:32.743Z,2.299
2023-08-31T02:10:34.172Z,2.200
2023-08-31T02:11:32.082Z,2
2023-08-31T02:12:32.383Z,2.200
2023-08-31T02:13:32.245Z,2.099
2023-08-31T02:14:32.307Z,2
2023-08-31T02:17:32.651Z,2.200
2023-08-31T02:18:32.753Z,2.099
2023-08-31T02:19:32.449Z,2.200
2023-08-31T02:20:33.611Z,2.099
2023-08-31T02:22:32.327Z,2.200
2023-08-31T02:23:32.405Z,2.099
2023-08-31T02:24:32.193Z,2.400
2023-08-31T02:25:32.288Z,2.099
2023-08-31T02:26:32.700Z,2
2023-08-31T02:27:32.475Z,2.299
2023-08-31T02:28:32.875Z,1.899
2023-08-31T02:29:32.003Z,2.099
2023-08-31T02:30:32.972Z,2.200
2023-08-31T02:33:32.232Z,2
2023-08-31T02:34:32.623Z,2.299
2023-08-31T02:35:32.892Z,2.099
2023-08-31T02:36:32.231Z,2.200
2023-08-31T02:38:32.279Z,2.299
2023-08-31T02:39:32.494Z,2.200
2023-08-31T02:40:33.516Z,2.299
2023-08-31T02:41:32.470Z,2.200
2023-08-31T02:43:32.563Z,2.299
2023-08-31T02:44:32.671Z,2.400
2023-08-31T02:45:32.422Z,2.299
2023-08-31T02:46:32.871Z,2.400
2023-08-31T02:47:32.459Z,2.299
2023-08-31T02:50:33.102Z,2.5
2023-08-31T02:51:31.941Z,2.299
2023-08-31T02:53:31.833Z,2.200
2023-08-31T02:54:32.724Z,2.299
2023-08-31T02:55:32.729Z,2.599
2023-08-31T02:56:32.731Z,2.5
2023-08-31T02:57:32.683Z,2.200
2023-08-31T02:58:32.837Z,2.5
2023-08-31T02:59:32.566Z,2.200
2023-08-31T03:00:33.750Z,2.299
2023-08-31T03:03:32.691Z,2.5
2023-08-31T03:04:32.491Z,2.299
2023-08-31T03:05:32.966Z,2
2023-08-31T03:06:32.171Z,2.200
2023-08-31T03:08:32.641Z,2.5
2023-08-31T03:09:32.610Z,2.099
2023-08-31T03:10:34.548Z,2
2023-08-31T03:11:33.079Z,2.099
2023-08-31T03:13:32.801Z,2.299
2023-08-31T03:14:32.941Z,2.400
2023-08-31T03:16:32.315Z,2.599
2023-08-31T03:17:32.751Z,2.700
2023-08-31T03:18:32.233Z,2.400
2023-08-31T03:19:32.623Z,2.799
2023-08-31T03:20:33.596Z,2.599
2023-08-31T03:21:32.251Z,2.5
2023-08-31T03:22:32.429Z,2.599
2023-08-31T03:23:32.386Z,2.799
2023-08-31T03:24:32.292Z,2.599
2023-08-31T03:25:32.419Z,2.5
2023-08-31T03:26:33.009Z,2.700
2023-08-31T03:27:31.768Z,2.400
2023-08-31T03:29:32.357Z,3
2023-08-31T03:30:33.726Z,2.599
2023-08-31T03:31:32.882Z,2.5
2023-08-31T03:32:32.325Z,2.799
2023-08-31T03:34:31.995Z,2.900
2023-08-31T03:35:32.525Z,2.700
2023-08-31T03:36:33.028Z,2.599
2023-08-31T03:38:32.636Z,2.5
2023-08-31T03:40:33.952Z,2.799
2023-08-31T03:41:32.550Z,2.5
2023-08-31T03:42:32.690Z,2.599
2023-08-31T03:43:32.390Z,3
2023-08-31T03:44:32.232Z,2.799
2023-08-31T03:45:32.913Z,2.900
2023-08-31T03:46:32.173Z,2.799
2023-08-31T03:47:32.343Z,2.5
2023-08-31T03:48:32.287Z,3
2023-08-31T03:49:32.313Z,2.599
2023-08-31T03:50:33.270Z,2.900
2023-08-31T03:51:32.504Z,2.5
2023-08-31T03:52:32.346Z,2.700
2023-08-31T03:53:31.898Z,2.400
2023-08-31T03:54:31.838Z,2.700
2023-08-31T03:55:31.952Z,2.900
2023-08-31T03:56:32.209Z,2.799
2023-08-31T03:57:32.916Z,2.599
2023-08-31T03:58:32.793Z,2.799
2023-08-31T03:59:32.293Z,3.099
2023-08-31T04:00:34.370Z,2.700
2023-08-31T04:01:32.626Z,3.099
2023-08-31T04:02:32.786Z,2.599
2023-08-31T04:03:32.367Z,2.299
2023-08-31T04:04:33.346Z,2.700
2023-08-31T04:05:33.030Z,2.599
2023-08-31T04:06:32.347Z,2.799
2023-08-31T04:07:32.332Z,2.5
2023-08-31T04:10:33.961Z,2.400
2023-08-31T04:12:32.405Z,2.099
2023-08-31T04:13:32.418Z,2.599
2023-08-31T04:14:32.916Z,2.400
2023-08-31T04:15:32.487Z,2.099
2023-08-31T04:16:32.425Z,2.299
2023-08-31T04:17:32.687Z,2.400
2023-08-31T04:20:33.747Z,2.299
2023-08-31T04:21:32.541Z,2.200
2023-08-31T04:22:31.971Z,2.5
2023-08-31T04:23:32.456Z,2.200
2023-08-31T04:25:32.707Z,2.099
2023-08-31T04:26:32.062Z,2.200
2023-08-31T04:27:32.144Z,2.299
2023-08-31T04:28:32.035Z,2.099
2023-08-31T04:29:31.875Z,2.299
2023-08-31T04:30:33.042Z,2.599
2023-08-31T04:31:32.041Z,2.299
2023-08-31T04:32:32.139Z,2.099
2023-08-31T04:33:32.133Z,2.299
2023-08-31T04:34:31.773Z,2.400
2023-08-31T04:35:32.822Z,1.899
2023-08-31T04:36:32.666Z,2.5
2023-08-31T04:37:32.569Z,2.099
2023-08-31T04:39:33.048Z,2.400
2023-08-31T04:40:34.291Z,2
2023-08-31T04:41:32.930Z,1.899
2023-08-31T04:42:32.381Z,2
2023-08-31T04:43:32.010Z,1.899
2023-08-31T04:45:33.303Z,1.799
2023-08-31T04:46:32.534Z,2
2023-08-31T04:47:33.095Z,2.400
2023-08-31T04:48:32.454Z,2
2023-08-31T04:49:32.360Z,2.099
2023-08-31T04:50:33.436Z,1.899
2023-08-31T04:51:32.599Z,1.799
2023-08-31T04:52:32.792Z,2
2023-08-31T04:53:32.648Z,1.899
2023-08-31T04:54:32.918Z,1.600
2023-08-31T04:55:32.365Z,1.899
2023-08-31T04:56:32.090Z,1.799
2023-08-31T04:58:32.736Z,1.700
2023-08-31T04:59:32.756Z,1.799
2023-08-31T05:00:33.925Z,1.700
2023-08-31T05:02:32.856Z,1.799
2023-08-31T05:03:32.482Z,1.600
2023-08-31T05:04:32.762Z,1.799
2023-08-31T05:05:33.313Z,1.700
2023-08-31T05:06:32.160Z,2.200
2023-08-31T05:07:32.305Z,1.799
2023-08-31T05:08:32.713Z,1.700
2023-08-31T05:10:35.722Z,1.799
2023-08-31T05:11:32.482Z,1.700
2023-08-31T05:13:32.675Z,1.899
2023-08-31T05:14:33.595Z,1.700
2023-08-31T05:15:33.374Z,2
2023-08-31T05:16:32.980Z,1.799
2023-08-31T05:17:32.457Z,1.700
2023-08-31T05:19:32.528Z,1.600
2023-08-31T05:20:33.512Z,1.799
2023-08-31T05:22:32.845Z,1.700
2023-08-31T05:24:32.406Z,1.799
2023-08-31T05:26:32.900Z,2
2023-08-31T05:27:32.512Z,1.799
2023-08-31T05:28:33.026Z,1.700
2023-08-31T05:30:33.034Z,1.799
2023-08-31T05:31:32.673Z,2
2023-08-31T05:32:32.914Z,1.700
2023-08-31T05:33:32.078Z,1.799
2023-08-31T05:34:33.574Z,1.899
2023-08-31T05:35:32.329Z,1.5
2023-08-31T05:36:32.614Z,1.600
2023-08-31T05:38:32.711Z,1.700
2023-08-31T05:39:32.297Z,1.799
2023-08-31T05:40:34.309Z,1.700
2023-08-31T05:41:32.848Z,1.899
2023-08-31T05:42:32.654Z,2
2023-08-31T05:43:32.520Z,1.600
2023-08-31T05:45:33.228Z,1.899
2023-08-31T05:46:32.794Z,1.700
2023-08-31T05:47:32.445Z,1.899
2023-08-31T05:48:32.987Z,1.799
2023-08-31T05:49:32.676Z,1.700
2023-08-31T05:50:32.579Z,1.799
2023-08-31T05:51:32.553Z,2
2023-08-31T05:52:33.109Z,1.700
2023-08-31T05:53:33.222Z,1.799
2023-08-31T05:54:33.367Z,1.899
2023-08-31T05:55:33.287Z,1.799
2023-08-31T05:56:33.022Z,2.099
2023-08-31T05:57:32.489Z,1.600
2023-08-31T05:58:33.413Z,2
2023-08-31T05:59:32.995Z,2.099
2023-08-31T06:00:33.777Z,2
2023-08-31T06:01:32.561Z,1.700
2023-08-31T06:02:32.578Z,1.799
2023-08-31T06:03:32.313Z,1.700
2023-08-31T06:04:32.832Z,1.899
2023-08-31T06:05:32.727Z,2
2023-08-31T06:06:32.639Z,1.799
2023-08-31T06:07:32.623Z,1.700
2023-08-31T06:09:32.427Z,2
2023-08-31T06:10:36.131Z,1.799
2023-08-31T06:11:32.793Z,1.5
2023-08-31T06:12:32.418Z,1.700
2023-08-31T06:13:33.438Z,1.799
2023-08-31T06:14:33.388Z,1.600
2023-08-31T06:15:33.565Z,1.899
2023-08-31T06:16:33.043Z,1.799
2023-08-31T06:17:33.046Z,1.700
2023-08-31T06:18:32.949Z,1.899
2023-08-31T06:19:32.779Z,1.700
2023-08-31T06:20:33.350Z,1.600
2023-08-31T06:21:33.196Z,2.099
2023-08-31T06:22:33.050Z,1.5
2023-08-31T06:23:32.822Z,1.799
2023-08-31T06:25:33.935Z,2
2023-08-31T06:26:33.461Z,1.700
2023-08-31T06:28:33.627Z,2
2023-08-31T06:29:32.669Z,1.5
2023-08-31T06:30:32.834Z,1.899
2023-08-31T06:31:32.827Z,1.700
2023-08-31T06:33:32.951Z,1.799
2023-08-31T06:34:33.242Z,1.600
2023-08-31T06:35:33.395Z,1.399
2023-08-31T06:36:33.160Z,1.799
2023-08-31T06:38:32.849Z,1.5
2023-08-31T06:39:32.970Z,1.799
2023-08-31T06:40:33.058Z,2
2023-08-31T06:42:33.210Z,1.700
2023-08-31T06:43:32.600Z,1.799
2023-08-31T06:44:32.563Z,1.600
2023-08-31T06:45:33.538Z,1.399
2023-08-31T06:46:32.659Z,1.799
2023-08-31T06:47:32.283Z,1.600
2023-08-31T06:48:32.646Z,1.700
2023-08-31T06:49:32.355Z,1.399
2023-08-31T06:50:33.506Z,1.5
2023-08-31T06:52:33.299Z,1.899
2023-08-31T06:53:32.607Z,1.700
2023-08-31T06:54:32.611Z,1.899
2023-08-31T06:55:33.558Z,1.700
2023-08-31T06:56:33.532Z,1.799
2023-08-31T06:57:32.624Z,1.399
2023-08-31T06:58:33.431Z,2
2023-08-31T06:59:33.643Z,1.5
2023-08-31T07:00:34.545Z,1.700
2023-08-31T07:02:32.970Z,1.899
2023-08-31T07:03:32.635Z,1.799
2023-08-31T07:04:32.897Z,1.5
2023-08-31T07:06:33.033Z,1.600
2023-08-31T07:07:33.444Z,1.700
2023-08-31T07:10:35.609Z,1.600
2023-08-31T07:11:32.730Z,1.700
2023-08-31T07:12:33.509Z,1.5
2023-08-31T07:15:33.025Z,1.600
2023-08-31T07:16:32.642Z,1.5
2023-08-31T07:17:32.732Z,1.799
2023-08-31T07:18:32.980Z,1.700
2023-08-31T07:19:33.232Z,1.399
2023-08-31T07:20:33.275Z,1.600
2023-08-31T07:21:33.247Z,1.5
2023-08-31T07:22:33.026Z,1.899
2023-08-31T07:23:32.740Z,1.5
2023-08-31T07:24:32.403Z,1.399
2023-08-31T07:26:33.343Z,1.600
2023-08-31T07:27:33.175Z,1.200
2023-08-31T07:28:33.682Z,1.399
2023-08-31T07:29:32.430Z,1.5
2023-08-31T07:31:32.809Z,1.399
2023-08-31T07:32:32.182Z,1.299
2023-08-31T07:33:32.748Z,1.600
2023-08-31T07:35:32.625Z,1.5
2023-08-31T07:36:32.788Z,1.700
2023-08-31T07:37:32.572Z,1.399
2023-08-31T07:38:33.349Z,1.200
2023-08-31T07:39:32.343Z,1.399
2023-08-31T07:40:35.287Z,1.600
2023-08-31T07:41:33.429Z,1.5
2023-08-31T07:42:33.044Z,1.399
2023-08-31T07:43:32.805Z,1.5
2023-08-31T07:45:33.144Z,1.399
2023-08-31T07:46:33.390Z,1.600
2023-08-31T07:47:35.445Z,1.5
2023-08-31T07:48:32.329Z,1.299
2023-08-31T07:49:32.932Z,1.399
2023-08-31T07:50:33.872Z,1.600
2023-08-31T07:51:33.371Z,1.399
2023-08-31T07:52:33.098Z,1.5
2023-08-31T07:53:33.289Z,1.600
2023-08-31T07:54:33.244Z,1.5
2023-08-31T07:56:32.672Z,1.299
2023-08-31T07:58:33.419Z,1.200
2023-08-31T07:59:32.356Z,1.299
2023-08-31T08:01:33.099Z,1.200
2023-08-31T08:02:32.722Z,1.299
2023-08-31T08:03:32.815Z,1.600
2023-08-31T08:05:33.461Z,1.5
2023-08-31T08:06:32.424Z,1.399
2023-08-31T08:07:33.304Z,1.299
2023-08-31T08:09:33.310Z,1.200
2023-08-31T08:10:35.851Z,1.399
2023-08-31T08:11:32.580Z,1.5
2023-08-31T08:13:33.160Z,1.399
2023-08-31T08:14:34.051Z,1.200
2023-08-31T08:16:33.068Z,1.399
2023-08-31T08:17:33.104Z,1.299
2023-08-31T08:18:33.169Z,1.200
2023-08-31T08:19:33.563Z,1.299
2023-08-31T08:20:33.844Z,1.399
2023-08-31T08:22:32.549Z,1.100
2023-08-31T08:23:33.253Z,1.200
2023-08-31T08:26:32.884Z,1.299
2023-08-31T08:29:32.947Z,1.5
2023-08-31T08:30:33.648Z,1.200
2023-08-31T08:31:32.974Z,1.299
2023-08-31T08:33:33.342Z,1.5
2023-08-31T08:34:32.951Z,1.299
2023-08-31T08:36:33.404Z,1.5
2023-08-31T08:37:33.083Z,1.299
2023-08-31T08:38:32.484Z,1.5
2023-08-31T08:39:32.725Z,1.200
2023-08-31T08:40:34.692Z,1.299
2023-08-31T08:41:33.455Z,1.399
2023-08-31T08:42:32.781Z,1.299
2023-08-31T08:43:32.447Z,1.200
2023-08-31T08:45:33.231Z,1.5
2023-08-31T08:46:33.363Z,1.299
2023-08-31T08:47:33.147Z,1.399
2023-08-31T08:48:32.769Z,1.299
2023-08-31T08:49:33.793Z,1.200
2023-08-31T08:50:35.004Z,1.399
2023-08-31T08:51:33.137Z,1.299
2023-08-31T08:52:32.799Z,1.200
2023-08-31T08:54:32.828Z,1
2023-08-31T08:55:32.841Z,1.200
2023-08-31T08:56:32.964Z,1.299
2023-08-31T08:57:33.001Z,1.5
2023-08-31T08:58:33.534Z,1.299
2023-08-31T08:59:32.982Z,1.600
2023-08-31T09:00:34.815Z,1.200
2023-08-31T09:01:33.341Z,1.299
2023-08-31T09:02:33.361Z,1.5
2023-08-31T09:03:32.907Z,1.700
2023-08-31T09:04:32.583Z,1.299
2023-08-31T09:06:32.938Z,1.100
2023-08-31T09:07:32.551Z,1.5
2023-08-31T09:08:33.491Z,1.200
2023-08-31T09:13:32.454Z,1.299
2023-08-31T09:14:33.025Z,1.5
2023-08-31T09:15:33.375Z,1.299
2023-08-31T09:16:32.746Z,1.200
2023-08-31T09:17:32.703Z,1.100
2023-08-31T09:18:32.822Z,1.200
2023-08-31T09:19:33.550Z,1.100
2023-08-31T09:21:32.743Z,1.299
2023-08-31T09:22:33.067Z,1.399
2023-08-31T09:25:33.173Z,1.299
2023-08-31T09:26:33.444Z,1.200
2023-08-31T09:28:33.721Z,1.399
2023-08-31T09:29:32.488Z,1.200
2023-08-31T09:31:34.347Z,1.399
2023-08-31T09:32:32.501Z,1.5
2023-08-31T09:34:32.825Z,1.299
2023-08-31T09:35:33.541Z,1.399
2023-08-31T09:36:34.275Z,1.5
2023-08-31T09:37:32.668Z,1.299
2023-08-31T09:38:32.964Z,1.399
2023-08-31T09:39:33.107Z,1.200
2023-08-31T09:40:35.048Z,1.399
2023-08-31T09:41:32.828Z,1.299
2023-08-31T09:43:32.926Z,1.399
2023-08-31T09:44:33.805Z,1.600
2023-08-31T09:45:45.674Z,1.299
2023-08-31T09:47:33.379Z,1.100
2023-08-31T09:48:33.321Z,1.399
2023-08-31T09:49:33.131Z,1.5
2023-08-31T09:50:33.846Z,1.600
2023-08-31T09:51:33.493Z,1.299
2023-08-31T09:53:33.028Z,1.600
2023-08-31T09:54:33.332Z,1.200
2023-08-31T09:55:33.038Z,1.600
2023-08-31T09:56:33.451Z,1.5
2023-08-31T09:57:45.332Z,1.700
2023-08-31T09:58:37.466Z,1.5
2023-08-31T09:59:32.797Z,1.700
2023-08-31T10:00:35.049Z,1.299
2023-08-31T10:01:32.650Z,1.600
2023-08-31T10:02:33.195Z,1.5
2023-08-31T10:03:33.173Z,1.700
2023-08-31T10:04:33.308Z,1.200
2023-08-31T10:05:33.212Z,1.399
2023-08-31T10:06:33.202Z,1.299
2023-08-31T10:08:32.789Z,1.399
2023-08-31T10:09:33.078Z,1.299
2023-08-31T10:10:36.313Z,1.600
2023-08-31T10:12:33.358Z,1.399
2023-08-31T10:13:32.823Z,1.600
2023-08-31T10:14:33.600Z,1.5
2023-08-31T10:15:34.147Z,1.299
2023-08-31T10:17:33.797Z,1.600
2023-08-31T10:18:32.968Z,1.399
2023-08-31T10:19:33.137Z,1.5
2023-08-31T10:23:33.198Z,1.299
2023-08-31T10:24:33.464Z,1.5
2023-08-31T10:25:33.147Z,1.600
2023-08-31T10:26:34.347Z,1.299
2023-08-31T10:27:33.413Z,1.399
2023-08-31T10:29:33.280Z,1.600
2023-08-31T10:30:34.883Z,1.700
2023-08-31T10:31:32.609Z,1.600
2023-08-31T10:33:33.687Z,1.399
2023-08-31T10:35:35.590Z,1.5
2023-08-31T10:36:34.532Z,1.600
2023-08-31T10:39:32.680Z,1.399
2023-08-31T10:40:34.634Z,1.299
2023-08-31T10:41:33.149Z,1.5
2023-08-31T10:42:32.751Z,1.399
2023-08-31T10:43:45.303Z,1.5
2023-08-31T10:44:37.847Z,1.600
2023-08-31T10:46:33.276Z,1.5
2023-08-31T10:47:32.421Z,1.600
2023-08-31T10:50:33.110Z,1.299
2023-08-31T10:51:33.134Z,1.600
2023-08-31T10:52:42.467Z,1.700
2023-08-31T10:53:36.396Z,1.5
2023-08-31T10:54:32.781Z,1.299
2023-08-31T10:55:34.573Z,1.399
2023-08-31T10:56:33.236Z,1.600
2023-08-31T10:57:33.825Z,1.5
2023-08-31T10:58:33.617Z,1.399
2023-08-31T10:59:32.961Z,1.5
2023-08-31T11:00:34.651Z,1.600
2023-08-31T11:01:32.981Z,1.5
2023-08-31T11:02:33.577Z,1.600
2023-08-31T11:03:32.682Z,1.299
2023-08-31T11:04:32.766Z,1.600
2023-08-31T11:06:32.604Z,1.299
2023-08-31T11:07:32.662Z,1.5
2023-08-31T11:09:33.491Z,1.299
2023-08-31T11:10:35.291Z,1.5
2023-08-31T11:11:33.167Z,1.399
2023-08-31T11:12:33.100Z,1.600
2023-08-31T11:13:33.029Z,1.5
2023-08-31T11:16:32.814Z,1.399
2023-08-31T11:18:32.668Z,1.5
2023-08-31T11:20:34.421Z,1.299
2023-08-31T11:22:32.953Z,1.5
2023-08-31T11:23:32.611Z,1.200
2023-08-31T11:24:32.483Z,1.600
2023-08-31T11:25:33.489Z,1.100
2023-08-31T11:26:32.668Z,1.399
2023-08-31T11:27:32.647Z,1.600
2023-08-31T11:28:33.762Z,1.299
2023-08-31T11:29:33.334Z,1.5
2023-08-31T11:30:33.998Z,1.600
2023-08-31T11:33:33.080Z,1.399
2023-08-31T11:36:33.106Z,1.600
2023-08-31T11:37:32.889Z,1.399
2023-08-31T11:38:32.549Z,1.600
2023-08-31T11:39:32.070Z,1.5
2023-08-31T11:41:32.669Z,1.399
2023-08-31T11:42:32.261Z,1.5
2023-08-31T11:43:32.915Z,1.700
2023-08-31T11:44:32.487Z,1.600
2023-08-31T11:45:33.671Z,1.700
2023-08-31T11:47:33.604Z,1.5
2023-08-31T11:48:32.496Z,1.600
2023-08-31T11:49:32.663Z,1.700
2023-08-31T11:50:32.875Z,1.5
2023-08-31T11:54:33.048Z,1.299
2023-08-31T11:55:32.951Z,1.600
2023-08-31T11:56:33.116Z,1.700
2023-08-31T11:57:33.132Z,1.399
2023-08-31T11:58:33.696Z,1.5
2023-08-31T11:59:32.136Z,1.600
2023-08-31T12:01:32.792Z,1.5
2023-08-31T12:02:32.678Z,1.399
2023-08-31T12:03:48.207Z,1.5
2023-08-31T12:04:40.103Z,1.600
2023-08-31T12:05:33.344Z,1.5
2023-08-31T12:06:33.247Z,1.799
2023-08-31T12:07:33.307Z,1.399
2023-08-31T12:08:32.878Z,1.600
2023-08-31T12:09:33.059Z,1.700
2023-08-31T12:11:33.213Z,1.299
2023-08-31T12:12:33.666Z,1.399
2023-08-31T12:13:32.437Z,1.700
2023-08-31T12:14:32.855Z,1.5
2023-08-31T12:15:32.903Z,1.700
2023-08-31T12:16:33.157Z,1.5
2023-08-31T12:17:33.007Z,1.600
2023-08-31T12:18:33.145Z,1.700
2023-08-31T12:20:34.070Z,1.600
2023-08-31T12:21:33.454Z,1.899
2023-08-31T12:22:32.596Z,1.399
2023-08-31T12:23:33.217Z,1.600
2023-08-31T12:26:33.043Z,1.700
2023-08-31T12:27:33.263Z,1.5
2023-08-31T12:28:32.644Z,1.399
2023-08-31T12:29:34.964Z,1.700
2023-08-31T12:30:33.340Z,1.799
2023-08-31T12:31:33.477Z,1.600
2023-08-31T12:32:33.284Z,1.799
2023-08-31T12:33:33.255Z,1.700
2023-08-31T12:34:33.720Z,1.600
2023-08-31T12:36:33.140Z,1.399
2023-08-31T12:37:33.440Z,1.799
2023-08-31T12:40:34.277Z,1.899
2023-08-31T12:41:33.087Z,1.700
2023-08-31T12:43:32.808Z,1.399
2023-08-31T12:44:32.940Z,1.700
2023-08-31T12:46:33.146Z,1.799
2023-08-31T12:47:33.456Z,1.5
2023-08-31T12:49:32.497Z,1.600
2023-08-31T12:51:32.131Z,1.899
2023-08-31T12:52:32.725Z,1.5
2023-08-31T12:53:33.087Z,1.600
2023-08-31T12:54:32.841Z,1.5
2023-08-31T12:55:33.200Z,1.399
2023-08-31T12:57:32.406Z,1.799
2023-08-31T12:58:34.072Z,1.5
2023-08-31T12:59:32.866Z,1.700
2023-08-31T13:00:34.080Z,1.600
2023-08-31T13:02:32.883Z,1.799
2023-08-31T13:03:32.800Z,1.5
2023-08-31T13:04:32.660Z,1.700
2023-08-31T13:05:33.098Z,1.5
2023-08-31T13:06:33.448Z,1.700
2023-08-31T13:07:33.414Z,1.5
2023-08-31T13:08:32.632Z,1.700
2023-08-31T13:10:36.320Z,1.399
2023-08-31T13:12:33.493Z,1.799
2023-08-31T13:13:32.295Z,1.5
2023-08-31T13:14:33.529Z,1.700
2023-08-31T13:15:32.889Z,1.600
2023-08-31T13:16:33.255Z,2
2023-08-31T13:17:33.390Z,1.5
2023-08-31T13:18:33.347Z,1.600
2023-08-31T13:20:33.229Z,1.5
2023-08-31T13:21:33.064Z,1.299
2023-08-31T13:22:33.203Z,1.600
2023-08-31T13:23:33.109Z,2.099
2023-08-31T13:24:32.408Z,1.799
2023-08-31T13:25:33.767Z,1.700
2023-08-31T13:26:32.885Z,2.200
2023-08-31T13:27:33.248Z,2.400
2023-08-31T13:28:33.690Z,2.700
2023-08-31T13:29:32.950Z,3.599
2023-08-31T13:30:34.953Z,2.299
2023-08-31T13:32:33.503Z,3
2023-08-31T13:33:32.825Z,2.599
2023-08-31T13:34:32.783Z,2.5
2023-08-31T13:35:32.902Z,1.799
2023-08-31T13:36:33.057Z,1.600
2023-08-31T13:37:33.055Z,1.799
2023-08-31T13:38:33.240Z,2.599
2023-08-31T13:39:33.304Z,2.400
2023-08-31T13:40:35.169Z,3.400
2023-08-31T13:41:32.554Z,2.299
2023-08-31T13:42:33.289Z,1.799
2023-08-31T13:43:33.305Z,1.700
2023-08-31T13:45:33.447Z,1.600
2023-08-31T13:46:32.911Z,1.700
2023-08-31T13:48:33.898Z,1.600
2023-08-31T13:50:33.179Z,1.899
2023-08-31T13:51:32.389Z,1.799
2023-08-31T13:52:33.738Z,2.5
2023-08-31T13:53:32.632Z,3.700
2023-08-31T13:54:33.239Z,9.600
2023-08-31T13:55:33.184Z,8.899
2023-08-31T13:56:33.445Z,8.600
2023-08-31T13:57:33.326Z,6.300
2023-08-31T13:58:33.557Z,4.199
2023-08-31T13:59:32.925Z,3.099
2023-08-31T14:00:34.690Z,2.900
2023-08-31T14:01:33.132Z,2.5
2023-08-31T14:02:33.219Z,2.799
2023-08-31T14:03:33.376Z,2.700
2023-08-31T14:04:33.614Z,2.099
2023-08-31T14:05:33.016Z,2.5
2023-08-31T14:06:33.514Z,3.200
2023-08-31T14:07:33.561Z,2.400
2023-08-31T14:08:32.657Z,2.099
2023-08-31T14:10:35.397Z,1.899
2023-08-31T14:11:33.500Z,1.799
2023-08-31T14:12:32.791Z,1.600
2023-08-31T14:13:32.447Z,1.5
2023-08-31T14:14:33.416Z,1.899
2023-08-31T14:15:33.082Z,1.600
2023-08-31T14:18:35.882Z,1.899
2023-08-31T14:19:34.063Z,1.799
2023-08-31T14:20:36.204Z,1.899
2023-08-31T14:21:34.120Z,1.700
2023-08-31T14:22:33.923Z,1.600
2023-08-31T14:23:33.187Z,1.700
2023-08-31T14:24:33.118Z,1.799
2023-08-31T14:25:33.556Z,1.600
2023-08-31T14:26:33.616Z,1.799
2023-08-31T14:27:33.281Z,1.5
2023-08-31T14:28:33.546Z,1.799
2023-08-31T14:29:33.350Z,1.700
2023-08-31T14:31:33.261Z,1.5
2023-08-31T14:32:33.510Z,1.799
2023-08-31T14:34:33.321Z,1.899
2023-08-31T14:35:33.329Z,1.700
2023-08-31T14:36:32.764Z,1.899
2023-08-31T14:38:33.093Z,1.5
2023-08-31T14:39:33.190Z,1.899
2023-08-31T14:40:34.753Z,1.5
2023-08-31T14:41:34.365Z,1.700
2023-08-31T14:42:33.635Z,1.600
2023-08-31T14:43:32.679Z,1.899
2023-08-31T14:44:33.227Z,1.600
2023-08-31T14:45:34.133Z,1.799
2023-08-31T14:46:33.319Z,1.600
2023-08-31T14:47:34.275Z,1.5
2023-08-31T14:49:32.653Z,1.799
2023-08-31T14:50:35.477Z,1.700
2023-08-31T14:51:33.139Z,1.799
2023-08-31T14:52:33.073Z,1.600
2023-08-31T14:54:33.022Z,1.700
2023-08-31T14:55:33.198Z,1.600
2023-08-31T14:57:33.299Z,1.799
2023-08-31T14:59:32.680Z,1.600
2023-08-31T15:00:34.080Z,1.899
2023-08-31T15:01:33.957Z,1.700
2023-08-31T15:02:33.853Z,1.5
2023-08-31T15:03:33.498Z,1.799
2023-08-31T15:05:33.672Z,1.700
2023-08-31T15:06:33.072Z,2.200
2023-08-31T15:07:33.513Z,1.799
2023-08-31T15:08:33.135Z,2
2023-08-31T15:09:33.031Z,1.899
2023-08-31T15:11:33.988Z,1.799
2023-08-31T15:13:32.965Z,1.5
2023-08-31T15:14:33.617Z,1.899
2023-08-31T15:15:33.485Z,1.799
2023-08-31T15:16:32.636Z,1.899
2023-08-31T15:17:33.562Z,1.799
2023-08-31T15:18:33.325Z,1.899
2023-08-31T15:19:33.296Z,1.799
2023-08-31T15:21:32.597Z,1.700
2023-08-31T15:22:33.356Z,1.799
2023-08-31T15:23:32.992Z,1.899
2023-08-31T15:24:33.377Z,2.200
2023-08-31T15:25:33.295Z,1.799
2023-08-31T15:26:33.661Z,1.700
2023-08-31T15:27:33.221Z,1.899
2023-08-31T15:28:33.597Z,1.799
2023-08-31T15:31:33.468Z,1.899
2023-08-31T15:32:33.204Z,2
2023-08-31T15:33:32.969Z,1.799
2023-08-31T15:34:33.053Z,2
2023-08-31T15:36:33.127Z,1.799
2023-08-31T15:37:32.891Z,1.700
2023-08-31T15:38:33.264Z,2
2023-08-31T15:39:33.250Z,1.899
2023-08-31T15:40:34.339Z,1.700
2023-08-31T15:41:33.495Z,2
2023-08-31T15:42:32.166Z,1.899
2023-08-31T15:43:33.235Z,1.799
2023-08-31T15:44:32.877Z,1.899
2023-08-31T15:47:33.451Z,1.799
2023-08-31T15:48:33.312Z,2.299
2023-08-31T15:49:33.015Z,1.799
2023-08-31T15:50:33.823Z,1.700
2023-08-31T15:51:33.027Z,1.899
2023-08-31T15:52:33.330Z,2.099
2023-08-31T15:53:33.283Z,1.799
2023-08-31T15:56:32.970Z,2
2023-08-31T15:58:33.498Z,2.200
2023-08-31T15:59:32.434Z,1.799
2023-08-31T16:00:34.030Z,2